createdAt,value
2018-03-17T00:00:15.498Z,14.90
2018-03-17T00:02:42.379Z,14.87
2018-03-17T00:05:09.208Z,16.00
2018-03-17T00:07:36.770Z,16.08
2018-03-17T00:10:03.626Z,16.90
2018-03-17T00:12:30.562Z,14.80
2018-03-17T00:14:58.106Z,13.60
2018-03-17T00:17:25.695Z,15.85
2018-03-17T00:19:53.271Z,14.82
2018-03-17T00:22:20.130Z,15.82
2018-03-17T00:24:46.957Z,16.00
2018-03-17T00:27:13.841Z,16.27
2018-03-17T00:29:40.659Z,15.60
2018-03-17T00:32:07.519Z,13.65
2018-03-17T00:34:34.383Z,12.85
2018-03-17T00:37:01.974Z,13.77
2018-03-17T00:39:28.834Z,12.85
2018-03-17T00:41:55.722Z,13.77
2018-03-17T00:44:22.540Z,14.02
2018-03-17T00:46:49.370Z,11.27
2018-03-17T00:49:16.299Z,12.05
2018-03-17T00:51:43.191Z,11.27
2018-03-17T00:54:10.025Z,11.93
2018-03-17T00:56:36.915Z,11.18
2018-03-17T00:59:04.458Z,11.55
2018-03-17T01:01:32.110Z,11.93
2018-03-17T01:03:58.959Z,11.25
2018-03-17T01:06:26.589Z,12.73
2018-03-17T01:08:53.438Z,11.65
2018-03-17T01:11:20.279Z,11.85
2018-03-17T01:13:47.113Z,10.93
2018-03-17T01:16:13.957Z,10.82
2018-03-17T01:18:40.780Z,10.25
2018-03-17T01:21:07.642Z,9.57
2018-03-17T01:23:35.231Z,10.45
2018-03-17T01:26:02.855Z,12.18
2018-03-17T01:28:29.678Z,10.25
2018-03-17T01:30:56.599Z,10.95
2018-03-17T01:33:23.455Z,10.82
2018-03-17T01:35:50.312Z,11.88
2018-03-17T01:38:17.146Z,10.48
2018-03-17T01:40:44.039Z,12.57
2018-03-17T01:43:10.863Z,12.70
2018-03-17T01:45:38.461Z,13.52
2018-03-17T01:48:06.064Z,12.88
2018-03-17T01:50:32.923Z,12.27
2018-03-17T01:52:59.810Z,11.52
2018-03-17T01:55:26.601Z,11.45
2018-03-17T01:57:53.414Z,13.18
2018-03-17T02:00:20.333Z,11.35
2018-03-17T02:02:47.916Z,11.80
2018-03-17T02:05:14.740Z,11.35
2018-03-17T02:07:42.335Z,12.05
2018-03-17T02:10:09.166Z,11.10
2018-03-17T02:12:36.047Z,10.50
2018-03-17T02:15:02.944Z,9.88
2018-03-17T02:17:29.771Z,10.15
2018-03-17T02:19:57.340Z,9.68
2018-03-17T02:22:24.975Z,9.13
2018-03-17T02:24:51.811Z,9.05
2018-03-17T02:27:18.651Z,9.05
2018-03-17T02:29:45.510Z,9.80
2018-03-17T02:32:12.422Z,9.57
2018-03-17T02:34:39.247Z,8.52
2018-03-17T02:37:06.085Z,8.52
2018-03-17T02:39:32.901Z,9.40
2018-03-17T02:41:59.791Z,8.30
2018-03-17T02:44:26.644Z,8.85
2018-03-17T02:46:53.493Z,8.15
2018-03-17T02:49:21.040Z,9.00
2018-03-17T02:51:47.923Z,9.50
2018-03-17T02:54:15.503Z,9.95
2018-03-17T02:56:42.310Z,8.73
2018-03-17T02:59:09.138Z,9.68
2018-03-17T03:01:35.971Z,9.55
2018-03-17T03:04:02.832Z,8.80
2018-03-17T03:06:29.658Z,9.45
2018-03-17T03:08:56.522Z,9.40
2018-03-17T03:11:23.450Z,9.60
2018-03-17T03:13:50.300Z,10.15
2018-03-17T03:16:17.198Z,9.65
2018-03-17T03:18:44.023Z,9.75
2018-03-17T03:21:10.918Z,9.85
2018-03-17T03:23:37.755Z,10.27
2018-03-17T03:26:04.627Z,10.32
2018-03-17T03:28:31.452Z,10.13
2018-03-17T03:30:58.398Z,9.55
2018-03-17T03:33:25.238Z,9.88
2018-03-17T03:35:52.835Z,8.75
2018-03-17T03:38:20.403Z,8.60
2018-03-17T03:40:48.018Z,8.18
2018-03-17T03:43:14.863Z,8.10
2018-03-17T03:45:41.754Z,7.85
2018-03-17T03:48:08.591Z,7.25
2018-03-17T03:50:36.206Z,8.10
2018-03-17T03:53:03.058Z,7.97
2018-03-17T03:55:29.890Z,8.43
2018-03-17T03:57:56.731Z,7.95
2018-03-17T04:00:23.586Z,7.70
2018-03-17T04:02:51.207Z,6.78
2018-03-17T04:05:18.031Z,8.55
2018-03-17T04:07:44.882Z,7.20
2018-03-17T04:10:11.719Z,7.47
2018-03-17T04:12:38.631Z,8.07
2018-03-17T04:15:05.511Z,7.15
2018-03-17T04:17:32.379Z,7.55
2018-03-17T04:19:59.206Z,7.80
2018-03-17T04:22:26.290Z,8.52
2018-03-17T04:24:53.134Z,11.48
2018-03-17T04:27:19.955Z,12.05
2018-03-17T04:29:47.012Z,13.98
2018-03-17T04:32:13.863Z,15.55
2018-03-17T04:34:40.679Z,15.98
2018-03-17T04:37:07.526Z,16.05
2018-03-17T04:39:34.342Z,16.50
2018-03-17T04:42:01.230Z,16.75
2018-03-17T04:44:28.098Z,16.80
2018-03-17T04:46:55.673Z,15.77
2018-03-17T04:49:23.240Z,15.18
2018-03-17T04:51:50.157Z,12.88
2018-03-17T04:54:17.010Z,14.52
2018-03-17T04:56:43.826Z,14.43
2018-03-17T04:59:10.690Z,12.73
2018-03-17T05:01:38.339Z,14.35
2018-03-17T05:04:05.191Z,14.20
2018-03-17T05:06:32.792Z,13.65
2018-03-17T05:08:59.663Z,14.10
2018-03-17T05:11:26.510Z,13.73
2018-03-17T05:13:53.366Z,18.60
2018-03-17T05:16:20.915Z,16.05
2018-03-17T05:18:47.759Z,20.98
2018-03-17T05:21:14.796Z,18.30
2018-03-17T05:23:41.639Z,19.17
2018-03-17T05:26:08.479Z,18.42
2018-03-17T05:28:35.347Z,19.00
2018-03-17T05:31:02.287Z,18.20
2018-03-17T05:33:29.117Z,20.15
2018-03-17T05:35:55.984Z,20.88
2018-03-17T05:38:23.605Z,20.67
2018-03-17T05:40:50.497Z,18.42
2018-03-17T05:43:17.351Z,18.87
2018-03-17T05:45:44.951Z,19.52
2018-03-17T05:48:11.782Z,19.23
2018-03-17T05:50:38.682Z,20.10
2018-03-17T05:53:06.256Z,20.88
2018-03-17T05:55:33.864Z,20.62
2018-03-17T05:58:00.699Z,20.23
2018-03-17T06:00:27.599Z,20.10
2018-03-17T06:02:55.204Z,20.75
2018-03-17T06:05:22.031Z,21.57
2018-03-17T06:07:48.870Z,19.60
2018-03-17T06:10:15.759Z,20.23
2018-03-17T06:12:42.611Z,18.33
2018-03-17T06:15:09.446Z,20.43
2018-03-17T06:17:36.283Z,19.23
2018-03-17T06:20:03.887Z,18.93
2018-03-17T06:22:31.502Z,18.90
2018-03-17T06:24:58.353Z,18.83
2018-03-17T06:27:25.219Z,19.80
2018-03-17T06:29:52.086Z,20.20
2018-03-17T06:32:19.695Z,19.90
2018-03-17T06:34:46.680Z,19.37
2018-03-17T06:37:13.514Z,21.80
2018-03-17T06:39:41.094Z,19.53
2018-03-17T06:42:08.006Z,15.63
2018-03-17T06:44:34.853Z,17.10
2018-03-17T06:47:01.675Z,16.10
2018-03-17T06:49:28.523Z,17.90
2018-03-17T06:51:55.489Z,22.50
2018-03-17T06:54:22.294Z,13.30
2018-03-17T06:56:49.111Z,12.80
2018-03-17T06:59:15.954Z,12.33
2018-03-17T07:01:42.901Z,31.27
2018-03-17T07:04:09.732Z,14.90
2018-03-17T07:06:36.591Z,12.87
2018-03-17T07:09:03.503Z,13.25
2018-03-17T07:11:30.405Z,11.80
2018-03-17T07:13:58.188Z,12.85
2018-03-17T07:16:25.023Z,12.43
2018-03-17T07:18:51.883Z,12.13
2018-03-17T07:21:18.835Z,14.77
2018-03-17T07:23:46.731Z,13.55
2018-03-17T07:26:13.672Z,14.32
2018-03-17T07:28:40.547Z,14.53
2018-03-17T07:31:07.509Z,16.25
2018-03-17T07:33:34.363Z,15.80
2018-03-17T07:36:01.231Z,16.67
2018-03-17T07:38:28.810Z,16.80
2018-03-17T07:40:55.734Z,17.60
2018-03-17T07:43:22.596Z,16.20
2018-03-17T07:45:49.464Z,17.97
2018-03-17T07:48:16.321Z,16.73
2018-03-17T07:50:44.791Z,17.45
2018-03-17T07:53:11.627Z,17.25
2018-03-17T07:55:38.435Z,17.80
2018-03-17T07:58:05.284Z,17.57
2018-03-17T08:00:32.168Z,17.07
2018-03-17T08:02:59.037Z,19.43
2018-03-17T08:05:32.892Z,17.93
2018-03-17T08:07:59.722Z,20.27
2018-03-17T08:10:26.603Z,17.60
2018-03-17T08:12:53.431Z,18.77
2018-03-17T08:15:20.291Z,18.47
2018-03-17T08:17:47.146Z,20.37
2018-03-17T08:20:13.994Z,20.50
2018-03-17T08:22:40.818Z,18.63
2018-03-17T08:25:07.674Z,18.43
2018-03-17T08:27:34.564Z,20.63
2018-03-17T08:30:01.400Z,18.80
2018-03-17T08:32:28.314Z,19.30
2018-03-17T08:34:55.894Z,22.08
2018-03-17T08:37:22.726Z,17.30
2018-03-17T08:39:50.334Z,20.35
2018-03-17T08:42:17.196Z,19.53
2018-03-17T08:44:44.062Z,19.97
2018-03-17T08:47:10.894Z,20.57
2018-03-17T08:49:37.776Z,20.60
2018-03-17T08:52:04.677Z,18.80
2018-03-17T08:54:31.517Z,18.92
2018-03-17T08:56:58.384Z,20.00
2018-03-17T08:59:25.232Z,19.57
2018-03-17T09:01:52.858Z,16.37
2018-03-17T09:04:19.691Z,18.40
2018-03-17T09:06:46.530Z,18.97
2018-03-17T09:09:13.347Z,17.43
2018-03-17T09:11:41.978Z,17.57
2018-03-17T09:14:08.832Z,18.62
2018-03-17T09:16:36.420Z,17.55
2018-03-17T09:19:03.287Z,18.30
2018-03-17T09:21:30.197Z,16.70
2018-03-17T09:23:57.775Z,16.33
2018-03-17T09:26:24.611Z,16.17
2018-03-17T09:28:51.480Z,15.37
2018-03-17T09:31:19.082Z,14.57
2018-03-17T09:33:45.916Z,13.47
2018-03-17T09:36:12.771Z,16.47
2018-03-17T09:38:39.595Z,14.60
2018-03-17T09:41:06.467Z,13.60
2018-03-17T09:43:34.197Z,13.47
2018-03-17T09:46:01.014Z,13.67
2018-03-17T09:48:27.881Z,11.97
2018-03-17T09:50:54.894Z,13.40
2018-03-17T09:53:21.740Z,12.63
2018-03-17T09:55:48.686Z,11.27
2018-03-17T09:58:15.801Z,12.50
2018-03-17T10:00:42.987Z,13.07
2018-03-17T10:03:10.767Z,13.70
2018-03-17T10:05:37.581Z,13.03
2018-03-17T10:08:04.604Z,13.30
2018-03-17T10:10:31.602Z,12.57
2018-03-17T10:12:58.591Z,11.17
2018-03-17T10:15:25.698Z,13.87
2018-03-17T10:17:53.358Z,12.60
2018-03-17T10:20:20.386Z,13.60
2018-03-17T10:22:47.328Z,13.20
2018-03-17T10:25:14.275Z,12.80
2018-03-17T10:27:41.172Z,12.23
2018-03-17T10:30:08.171Z,12.50
2018-03-17T10:32:35.260Z,11.73
2018-03-17T10:35:02.983Z,11.80
2018-03-17T10:37:29.951Z,13.10
2018-03-17T10:39:56.826Z,13.38
2018-03-17T10:42:23.684Z,13.40
2018-03-17T10:44:50.785Z,11.83
2018-03-17T10:47:18.413Z,12.40
2018-03-17T10:49:45.454Z,10.33
2018-03-17T10:52:12.566Z,11.67
2018-03-17T10:54:40.323Z,10.37
2018-03-17T10:57:07.251Z,9.70
2018-03-17T10:59:34.382Z,9.43
2018-03-17T11:02:04.374Z,10.10
2018-03-17T11:04:31.964Z,9.63
2018-03-17T11:06:58.809Z,9.67
2018-03-17T11:09:25.657Z,11.17
2018-03-17T11:11:52.546Z,9.50
2018-03-17T11:14:20.165Z,11.30
2018-03-17T11:16:47.104Z,10.90
2018-03-17T11:19:13.920Z,12.63
2018-03-17T11:21:41.554Z,10.30
2018-03-17T11:24:08.366Z,11.30
2018-03-17T11:26:35.179Z,11.57
2018-03-17T11:29:02.047Z,12.37
2018-03-17T11:31:29.042Z,10.30
2018-03-17T11:33:55.887Z,11.77
2018-03-17T11:36:22.723Z,9.73
2018-03-17T11:38:50.287Z,12.17
2018-03-17T11:41:18.316Z,9.73
2018-03-17T11:43:45.267Z,11.87
2018-03-17T11:46:12.095Z,9.40
2018-03-17T11:48:38.982Z,9.77
2018-03-17T11:51:05.886Z,8.87
2018-03-17T11:53:32.758Z,7.70
2018-03-17T11:56:00.377Z,8.70
2018-03-17T11:58:27.206Z,9.23
2018-03-17T12:00:54.163Z,8.43
2018-03-17T12:03:20.991Z,8.20
2018-03-17T12:05:47.842Z,10.07
2018-03-17T12:08:14.735Z,8.73
2018-03-17T12:10:42.383Z,9.07
2018-03-17T12:13:09.242Z,10.47
2018-03-17T12:15:36.045Z,8.63
2018-03-17T12:18:02.919Z,8.20
2018-03-17T12:20:29.763Z,8.87
2018-03-17T12:22:56.602Z,9.00
2018-03-17T12:25:23.444Z,9.83
2018-03-17T12:27:50.275Z,8.53
2018-03-17T12:30:17.111Z,6.97
2018-03-17T12:32:44.005Z,7.90
2018-03-17T12:35:11.595Z,8.77
2018-03-17T12:37:38.439Z,8.53
2018-03-17T12:40:05.500Z,8.80
2018-03-17T12:42:32.355Z,8.87
2018-03-17T12:44:59.179Z,8.00
2018-03-17T12:47:26.051Z,7.50
2018-03-17T12:49:53.391Z,7.83
2018-03-17T12:52:20.339Z,7.40
2018-03-17T12:54:47.948Z,7.47
2018-03-17T12:57:14.942Z,8.50
2018-03-17T12:59:41.779Z,9.37
2018-03-17T13:02:09.459Z,8.80
2018-03-17T13:04:36.651Z,9.20
2018-03-17T13:07:03.471Z,8.07
2018-03-17T13:09:30.328Z,8.10
2018-03-17T13:11:57.271Z,9.77
2018-03-17T13:14:24.126Z,7.03
2018-03-17T13:16:50.977Z,9.70
2018-03-17T13:19:27.022Z,7.40
2018-03-17T13:21:53.931Z,7.93
2018-03-17T13:24:20.786Z,8.77
2018-03-17T13:26:59.876Z,6.43
2018-03-17T13:29:26.716Z,6.27
2018-03-17T13:31:53.619Z,6.20
2018-03-17T13:34:21.191Z,7.90
2018-03-17T13:37:00.271Z,8.00
2018-03-17T13:39:27.078Z,9.67
2018-03-17T13:41:53.963Z,6.60
2018-03-17T13:44:20.814Z,7.40
2018-03-17T13:46:48.459Z,5.73
2018-03-17T13:49:15.359Z,8.23
2018-03-17T13:51:42.287Z,5.68
2018-03-17T13:54:09.135Z,6.40
2018-03-17T13:56:36.046Z,6.80
2018-03-17T13:59:03.643Z,6.15
2018-03-17T14:01:30.555Z,6.30
2018-03-17T14:03:57.419Z,5.20
2018-03-17T14:06:24.359Z,6.00
2018-03-17T14:08:51.234Z,4.80
2018-03-17T14:11:18.146Z,4.97
2018-03-17T14:13:45.745Z,5.60
2018-03-17T14:16:12.572Z,5.28
2018-03-17T14:18:39.427Z,5.90
2018-03-17T14:21:06.322Z,5.17
2018-03-17T14:23:33.251Z,5.90
2018-03-17T14:26:00.879Z,5.53
2018-03-17T14:28:27.704Z,5.47
2018-03-17T14:30:55.355Z,5.23
2018-03-17T14:33:22.231Z,6.60
2018-03-17T14:35:49.090Z,7.18
2018-03-17T14:38:15.928Z,6.07
2018-03-17T14:40:42.940Z,5.28
2018-03-17T14:43:09.828Z,6.22
2018-03-17T14:45:36.730Z,6.00
2018-03-17T14:48:03.639Z,5.25
2018-03-17T14:50:31.308Z,5.53
2018-03-17T14:52:58.927Z,5.80
2018-03-17T14:55:25.770Z,6.78
2018-03-17T14:57:59.680Z,7.30
2018-03-17T15:00:26.500Z,6.87
2018-03-17T15:02:53.335Z,6.65
2018-03-17T15:05:21.351Z,6.35
2018-03-17T15:07:48.207Z,6.70
2018-03-17T15:10:15.640Z,6.95
2018-03-17T15:12:42.548Z,6.55
2018-03-17T15:15:09.503Z,8.40
2018-03-17T15:17:36.374Z,6.65
2018-03-17T15:20:04.093Z,7.70
2018-03-17T15:22:31.396Z,7.75
2018-03-17T15:25:00.093Z,8.57
2018-03-17T15:27:27.683Z,7.62
2018-03-17T15:29:54.566Z,7.62
2018-03-17T15:32:21.491Z,6.83
2018-03-17T15:34:48.359Z,6.93
2018-03-17T15:37:15.285Z,7.73
2018-03-17T15:39:42.388Z,6.40
2018-03-17T15:42:10.047Z,7.50
2018-03-17T15:44:36.899Z,8.30
2018-03-17T15:47:03.801Z,9.20
2018-03-17T15:49:30.662Z,8.90
2018-03-17T15:51:57.619Z,8.53
2018-03-17T15:54:24.462Z,8.85
2018-03-17T15:56:51.499Z,9.43
2018-03-17T15:59:19.098Z,9.55
2018-03-17T16:01:46.036Z,9.60
2018-03-17T16:04:12.910Z,9.73
2018-03-17T16:06:39.742Z,8.75
2018-03-17T16:09:06.570Z,9.48
2018-03-17T16:11:34.214Z,9.40
2018-03-17T16:14:01.803Z,8.85
2018-03-17T16:16:28.670Z,8.60
2018-03-17T16:18:55.516Z,8.85
2018-03-17T16:21:22.382Z,9.23
2018-03-17T16:23:49.240Z,8.77
2018-03-17T16:26:16.134Z,9.05
2018-03-17T16:28:43.012Z,9.55
2018-03-17T16:31:09.884Z,10.45
2018-03-17T16:33:37.511Z,8.98
2018-03-17T16:36:04.386Z,9.05
2018-03-17T16:38:31.240Z,9.77
2018-03-17T16:40:58.871Z,9.35
2018-03-17T16:43:25.767Z,10.63
2018-03-17T16:45:52.599Z,8.98
2018-03-17T16:48:19.430Z,10.63
2018-03-17T16:50:47.092Z,10.43
2018-03-17T16:53:14.682Z,11.30
2018-03-17T16:55:41.542Z,10.75
2018-03-17T16:58:08.408Z,10.70
2018-03-17T17:00:35.267Z,9.93
2018-03-17T17:03:02.133Z,11.60
2018-03-17T17:05:29.763Z,9.45
2018-03-17T17:07:56.586Z,9.40
2018-03-17T17:10:23.416Z,10.07
2018-03-17T17:12:51.042Z,10.50
2018-03-17T17:15:18.598Z,10.77
2018-03-17T17:17:46.194Z,10.30
2018-03-17T17:20:13.079Z,10.45
2018-03-17T17:22:40.006Z,11.00
2018-03-17T17:25:06.863Z,9.10
2018-03-17T17:27:34.727Z,9.18
2018-03-17T17:30:01.593Z,8.27
2018-03-17T17:32:28.499Z,8.82
2018-03-17T17:34:55.332Z,9.38
2018-03-17T17:37:22.240Z,9.25
2018-03-17T17:39:49.839Z,7.35
2018-03-17T17:42:16.683Z,7.50
2018-03-17T17:44:43.555Z,9.43
2018-03-17T17:47:10.378Z,9.02
2018-03-17T17:49:37.417Z,9.00
2018-03-17T17:52:04.387Z,8.90
2018-03-17T17:54:31.963Z,7.82
2018-03-17T17:56:59.559Z,7.75
2018-03-17T17:59:26.383Z,9.40
2018-03-17T18:01:53.285Z,8.70
2018-03-17T18:04:20.158Z,8.60
2018-03-17T18:06:46.997Z,9.20
2018-03-17T18:09:14.570Z,8.80
2018-03-17T18:11:42.198Z,7.85
2018-03-17T18:14:09.794Z,8.77
2018-03-17T18:16:36.636Z,8.27
2018-03-17T18:19:03.467Z,7.15
2018-03-17T18:21:31.108Z,7.10
2018-03-17T18:23:58.716Z,9.23
2018-03-17T18:26:25.546Z,9.10
2018-03-17T18:28:53.150Z,6.85
2018-03-17T18:31:19.995Z,6.43
2018-03-17T18:33:46.827Z,7.87
2018-03-17T18:36:13.687Z,5.93
2018-03-17T18:38:40.511Z,7.87
2018-03-17T18:41:07.363Z,7.70
2018-03-17T18:43:34.247Z,8.07
2018-03-17T18:46:01.071Z,7.35
2018-03-17T18:48:27.931Z,8.13
2018-03-17T18:50:55.607Z,7.30
2018-03-17T18:53:22.433Z,6.82
2018-03-17T18:55:49.279Z,7.25
2018-03-17T18:58:16.858Z,6.72
2018-03-17T19:00:43.791Z,6.32
2018-03-17T19:03:10.599Z,5.93
2018-03-17T19:05:37.430Z,7.40
2018-03-17T19:08:04.471Z,6.45
2018-03-17T19:10:31.300Z,7.05
2018-03-17T19:12:58.128Z,7.57
2018-03-17T19:15:25.002Z,7.95
2018-03-17T19:17:51.852Z,6.68
2018-03-17T19:20:19.659Z,5.68
2018-03-17T19:22:47.310Z,6.60
2018-03-17T19:25:14.927Z,5.68
2018-03-17T19:27:42.706Z,5.18
2018-03-17T19:30:09.554Z,6.28
2018-03-17T19:32:37.589Z,5.10
2018-03-17T19:35:05.132Z,5.25
2018-03-17T19:37:31.950Z,6.20
2018-03-17T19:40:00.568Z,6.10
2018-03-17T19:42:42.363Z,5.10
2018-03-17T19:45:09.211Z,5.93
2018-03-17T19:47:36.040Z,6.60
2018-03-17T19:50:02.889Z,6.25
2018-03-17T19:52:29.811Z,6.97
2018-03-17T19:54:56.623Z,7.93
2018-03-17T19:57:23.482Z,7.95
2018-03-17T19:59:51.094Z,7.90
2018-03-17T20:02:17.993Z,7.55
2018-03-17T20:04:44.863Z,7.97
2018-03-17T20:07:12.201Z,7.65
2018-03-17T20:09:39.035Z,8.00
2018-03-17T20:12:05.966Z,7.10
2018-03-17T20:14:33.526Z,6.87
2018-03-17T20:17:00.339Z,7.37
2018-03-17T20:19:27.672Z,6.90
2018-03-17T20:21:54.584Z,7.43
2018-03-17T20:24:22.148Z,7.03
2018-03-17T20:26:49.723Z,7.20
2018-03-17T20:29:16.551Z,8.05
2018-03-17T20:31:44.175Z,6.97
2018-03-17T20:34:11.027Z,6.15
2018-03-17T20:36:37.859Z,6.50
2018-03-17T20:39:05.284Z,6.55
2018-03-17T20:41:32.206Z,7.05
2018-03-17T20:43:59.876Z,7.97
2018-03-17T20:46:26.695Z,8.65
2018-03-17T20:48:54.259Z,6.80
2018-03-17T20:51:22.903Z,7.32
2018-03-17T20:53:49.713Z,6.10
2018-03-17T20:56:16.549Z,6.60
2018-03-17T20:58:43.384Z,6.60
2018-03-17T21:01:10.271Z,6.60
2018-03-17T21:03:37.143Z,6.70
2018-03-17T21:06:03.938Z,7.80
2018-03-17T21:08:30.766Z,7.18
2018-03-17T21:10:57.683Z,7.00
2018-03-17T21:13:24.575Z,7.03
2018-03-17T21:15:51.407Z,7.37
2018-03-17T21:18:18.287Z,6.50
2018-03-17T21:23:34.342Z,6.57
2018-03-17T21:26:01.212Z,9.75
2018-03-17T21:28:28.037Z,8.38
2018-03-17T21:30:54.921Z,9.18
2018-03-17T21:33:21.766Z,7.37
2018-03-17T21:35:48.573Z,6.95
2018-03-17T21:38:15.428Z,9.40
2018-03-17T21:40:42.308Z,10.95
2018-03-17T21:43:09.923Z,8.10
2018-03-17T21:45:36.799Z,8.60
2018-03-17T21:48:03.671Z,8.85
2018-03-17T21:50:30.565Z,8.50
2018-03-17T21:52:57.375Z,9.93
2018-03-17T21:55:24.181Z,8.82
2018-03-17T21:57:51.009Z,9.93
2018-03-17T22:00:17.873Z,9.73
2018-03-17T22:02:44.805Z,11.27
2018-03-17T22:05:11.608Z,8.65
2018-03-17T22:07:38.483Z,10.52
2018-03-17T22:10:05.361Z,9.40
2018-03-17T22:12:32.268Z,10.02
2018-03-17T22:14:59.090Z,10.43
2018-03-17T22:17:25.975Z,9.88
2018-03-17T22:19:52.832Z,10.27
2018-03-17T22:22:20.442Z,9.98
2018-03-17T22:24:47.351Z,9.80
2018-03-17T22:27:14.189Z,10.43
2018-03-17T22:29:41.061Z,11.93
2018-03-17T22:32:07.916Z,12.77
2018-03-17T22:34:34.764Z,10.35
2018-03-17T22:37:01.618Z,9.00
2018-03-17T22:39:28.463Z,9.30
2018-03-17T22:41:55.318Z,10.60
2018-03-17T22:44:22.154Z,10.07
2018-03-17T22:46:49.015Z,10.50
2018-03-17T22:49:15.871Z,9.15
2018-03-17T22:51:43.479Z,9.82
2018-03-17T22:54:10.348Z,11.65
2018-03-17T22:56:37.163Z,13.77
2018-03-17T22:59:04.002Z,13.38
2018-03-17T23:01:30.884Z,11.73
2018-03-17T23:03:57.682Z,11.75
2018-03-17T23:06:24.495Z,13.50
2018-03-17T23:08:51.369Z,12.07
2018-03-17T23:11:18.259Z,12.10
2018-03-17T23:13:45.832Z,10.82
2018-03-17T23:16:13.050Z,11.63
2018-03-17T23:18:39.891Z,10.30
2018-03-17T23:21:06.843Z,12.05
2018-03-17T23:23:33.697Z,11.45
2018-03-17T23:26:00.566Z,11.98
2018-03-17T23:28:27.411Z,12.07
2018-03-17T23:30:54.384Z,11.82
2018-03-17T23:33:21.245Z,11.55
2018-03-17T23:35:48.107Z,12.32
2018-03-17T23:38:14.931Z,12.60
2018-03-17T23:40:41.928Z,12.50
2018-03-17T23:43:08.842Z,11.73
2018-03-17T23:45:36.547Z,12.35
2018-03-17T23:48:03.458Z,12.48
2018-03-17T23:50:30.355Z,10.68
2018-03-17T23:52:57.230Z,11.82
2018-03-17T23:55:24.108Z,11.15
2018-03-17T23:57:51.729Z,12.00
